sensor_id;sensor_type;location;lat;lon;timestamp;pressure;altitude;pressure_sealevel;temperature;humidity
23172;BME280;11754;42.664;23.594;2023-04-09T00:01:24;95619.06;;;8.86;72.13
23172;BME280;11754;42.664;23.594;2023-04-09T00:03:49;95622.69;;;8.85;71.97
23172;BME280;11754;42.664;23.594;2023-04-09T00:06:15;95632.59;;;8.92;71.82
23172;BME280;11754;42.664;23.594;2023-04-09T00:08:40;95636.66;;;8.86;71.60
23172;BME280;11754;42.664;23.594;2023-04-09T00:11:06;95627.94;;;8.85;72.08
23172;BME280;11754;42.664;23.594;2023-04-09T00:13:31;95639.28;;;8.86;71.92
23172;BME280;11754;42.664;23.594;2023-04-09T00:15:56;95626.59;;;8.81;71.63
23172;BME280;11754;42.664;23.594;2023-04-09T00:18:22;95637.34;;;8.88;71.10
23172;BME280;11754;42.664;23.594;2023-04-09T00:20:47;95634.84;;;8.86;71.33
23172;BME280;11754;42.664;23.594;2023-04-09T00:23:13;95640.78;;;8.88;70.79
23172;BME280;11754;42.664;23.594;2023-04-09T00:25:38;95631.25;;;8.87;71.03
23172;BME280;11754;42.664;23.594;2023-04-09T00:28:03;95636.53;;;8.87;71.47
23172;BME280;11754;42.664;23.594;2023-04-09T00:30:29;95640.78;;;8.88;70.73
23172;BME280;11754;42.664;23.594;2023-04-09T00:32:55;95633.78;;;8.79;70.57
23172;BME280;11754;42.664;23.594;2023-04-09T00:35:21;95639.00;;;8.71;70.72
23172;BME280;11754;42.664;23.594;2023-04-09T00:37:46;95641.03;;;8.77;71.17
23172;BME280;11754;42.664;23.594;2023-04-09T00:40:12;95639.97;;;8.70;70.55
23172;BME280;11754;42.664;23.594;2023-04-09T00:42:37;95636.44;;;8.61;70.54
23172;BME280;11754;42.664;23.594;2023-04-09T00:45:04;95632.69;;;8.64;71.26
23172;BME280;11754;42.664;23.594;2023-04-09T00:47:30;95643.38;;;8.62;70.86
23172;BME280;11754;42.664;23.594;2023-04-09T00:49:57;95623.69;;;8.49;71.19
23172;BME280;11754;42.664;23.594;2023-04-09T00:52:24;95625.25;;;8.41;71.72
23172;BME280;11754;42.664;23.594;2023-04-09T00:54:50;95626.09;;;8.32;72.23
23172;BME280;11754;42.664;23.594;2023-04-09T00:57:17;95631.44;;;8.23;72.30
23172;BME280;11754;42.664;23.594;2023-04-09T00:59:43;95630.50;;;8.14;72.87
23172;BME280;11754;42.664;23.594;2023-04-09T01:02:09;95632.88;;;8.07;72.83
23172;BME280;11754;42.664;23.594;2023-04-09T01:04:35;95637.06;;;8.00;73.36
23172;BME280;11754;42.664;23.594;2023-04-09T01:09:52;95637.22;;;7.99;73.47
23172;BME280;11754;42.664;23.594;2023-04-09T01:12:32;95634.88;;;7.95;73.78
23172;BME280;11754;42.664;23.594;2023-04-09T01:15:06;95626.91;;;7.87;73.76
23172;BME280;11754;42.664;23.594;2023-04-09T01:17:39;95629.44;;;7.79;74.08
23172;BME280;11754;42.664;23.594;2023-04-09T01:20:09;95632.22;;;7.78;74.20
23172;BME280;11754;42.664;23.594;2023-04-09T01:22:56;95627.97;;;7.67;74.60
23172;BME280;11754;42.664;23.594;2023-04-09T01:25:44;95633.94;;;7.59;74.95
23172;BME280;11754;42.664;23.594;2023-04-09T01:28:22;95628.88;;;7.48;75.20
23172;BME280;11754;42.664;23.594;2023-04-09T01:30:55;95641.16;;;7.47;75.47
23172;BME280;11754;42.664;23.594;2023-04-09T01:33:23;95633.88;;;7.41;76.10
23172;BME280;11754;42.664;23.594;2023-04-09T01:35:49;95626.00;;;7.32;76.03
23172;BME280;11754;42.664;23.594;2023-04-09T01:38:18;95635.41;;;7.34;76.28
23172;BME280;11754;42.664;23.594;2023-04-09T01:40:44;95630.16;;;7.34;76.08
23172;BME280;11754;42.664;23.594;2023-04-09T01:43:11;95645.06;;;7.43;76.00
23172;BME280;11754;42.664;23.594;2023-04-09T01:45:38;95643.09;;;7.45;75.90
23172;BME280;11754;42.664;23.594;2023-04-09T01:48:04;95642.81;;;7.49;76.06
23172;BME280;11754;42.664;23.594;2023-04-09T01:50:31;95641.28;;;7.56;75.52
23172;BME280;11754;42.664;23.594;2023-04-09T01:52:57;95640.56;;;7.63;75.35
23172;BME280;11754;42.664;23.594;2023-04-09T01:55:22;95649.38;;;7.72;74.69
23172;BME280;11754;42.664;23.594;2023-04-09T01:57:47;95640.25;;;7.76;74.82
23172;BME280;11754;42.664;23.594;2023-04-09T02:00:13;95646.84;;;7.80;74.74
23172;BME280;11754;42.664;23.594;2023-04-09T02:05:30;95633.03;;;7.78;74.41
23172;BME280;11754;42.664;23.594;2023-04-09T02:08:01;95640.34;;;7.84;74.26
23172;BME280;11754;42.664;23.594;2023-04-09T02:10:29;95637.72;;;7.84;74.35
23172;BME280;11754;42.664;23.594;2023-04-09T02:12:57;95632.75;;;7.81;74.01
23172;BME280;11754;42.664;23.594;2023-04-09T02:15:24;95639.50;;;7.84;74.21
23172;BME280;11754;42.664;23.594;2023-04-09T02:17:51;95644.31;;;7.88;74.23
23172;BME280;11754;42.664;23.594;2023-04-09T02:20:17;95640.72;;;7.89;74.21
23172;BME280;11754;42.664;23.594;2023-04-09T02:22:43;95638.25;;;7.88;73.91
23172;BME280;11754;42.664;23.594;2023-04-09T02:25:08;95640.44;;;7.92;74.07
23172;BME280;11754;42.664;23.594;2023-04-09T02:27:34;95629.63;;;7.95;73.98
23172;BME280;11754;42.664;23.594;2023-04-09T02:29:59;95637.50;;;7.95;74.01
23172;BME280;11754;42.664;23.594;2023-04-09T02:32:25;95627.47;;;7.91;74.02
23172;BME280;11754;42.664;23.594;2023-04-09T02:34:50;95628.38;;;8.00;73.60
23172;BME280;11754;42.664;23.594;2023-04-09T02:37:16;95630.41;;;8.06;73.79
23172;BME280;11754;42.664;23.594;2023-04-09T02:39:42;95633.50;;;8.01;73.84
23172;BME280;11754;42.664;23.594;2023-04-09T02:42:07;95633.78;;;7.98;74.14
23172;BME280;11754;42.664;23.594;2023-04-09T02:44:33;95638.88;;;8.00;74.41
23172;BME280;11754;42.664;23.594;2023-04-09T02:46:58;95636.84;;;7.93;74.10
23172;BME280;11754;42.664;23.594;2023-04-09T02:49:24;95639.06;;;7.88;74.70
23172;BME280;11754;42.664;23.594;2023-04-09T02:51:49;95637.72;;;7.84;74.93
23172;BME280;11754;42.664;23.594;2023-04-09T02:54:14;95632.47;;;7.84;74.42
23172;BME280;11754;42.664;23.594;2023-04-09T02:56:40;95635.53;;;7.80;74.95
23172;BME280;11754;42.664;23.594;2023-04-09T02:59:05;95643.81;;;7.75;75.13
23172;BME280;11754;42.664;23.594;2023-04-09T03:01:31;95630.31;;;7.70;75.08
23172;BME280;11754;42.664;23.594;2023-04-09T03:03:56;95633.31;;;7.75;75.06
23172;BME280;11754;42.664;23.594;2023-04-09T03:06:21;95623.94;;;7.73;74.96
23172;BME280;11754;42.664;23.594;2023-04-09T03:08:47;95636.34;;;7.80;75.52
23172;BME280;11754;42.664;23.594;2023-04-09T03:11:12;95632.16;;;7.87;74.83
23172;BME280;11754;42.664;23.594;2023-04-09T03:13:37;95621.91;;;7.94;75.25
23172;BME280;11754;42.664;23.594;2023-04-09T03:16:03;95624.78;;;8.01;74.85
23172;BME280;11754;42.664;23.594;2023-04-09T03:18:28;95622.81;;;8.03;74.82
23172;BME280;11754;42.664;23.594;2023-04-09T03:20:54;95621.25;;;8.10;74.69
23172;BME280;11754;42.664;23.594;2023-04-09T03:23:19;95630.38;;;8.15;74.71
23172;BME280;11754;42.664;23.594;2023-04-09T03:25:45;95630.59;;;8.22;74.41
23172;BME280;11754;42.664;23.594;2023-04-09T03:28:10;95628.88;;;8.31;74.49
23172;BME280;11754;42.664;23.594;2023-04-09T03:30:36;95630.53;;;8.32;74.14
23172;BME280;11754;42.664;23.594;2023-04-09T03:33:01;95641.88;;;8.32;74.30
23172;BME280;11754;42.664;23.594;2023-04-09T03:35:26;95633.03;;;8.33;74.14
23172;BME280;11754;42.664;23.594;2023-04-09T03:37:52;95641.31;;;8.38;74.15
23172;BME280;11754;42.664;23.594;2023-04-09T03:40:17;95637.13;;;8.46;74.04
23172;BME280;11754;42.664;23.594;2023-04-09T03:42:42;95647.84;;;8.52;73.89
23172;BME280;11754;42.664;23.594;2023-04-09T03:45:08;95638.47;;;8.50;73.90
23172;BME280;11754;42.664;23.594;2023-04-09T03:47:34;95643.13;;;8.56;73.62
23172;BME280;11754;42.664;23.594;2023-04-09T03:49:59;95635.91;;;8.58;73.57
23172;BME280;11754;42.664;23.594;2023-04-09T03:52:25;95642.84;;;8.59;73.79
23172;BME280;11754;42.664;23.594;2023-04-09T03:54:50;95644.19;;;8.63;73.56
23172;BME280;11754;42.664;23.594;2023-04-09T03:57:16;95643.91;;;8.66;73.40
23172;BME280;11754;42.664;23.594;2023-04-09T03:59:41;95653.78;;;8.72;72.86
23172;BME280;11754;42.664;23.594;2023-04-09T04:02:06;95653.78;;;8.72;73.03
23172;BME280;11754;42.664;23.594;2023-04-09T04:04:32;95645.53;;;8.67;72.82
23172;BME280;11754;42.664;23.594;2023-04-09T04:06:57;95646.34;;;8.68;73.06
23172;BME280;11754;42.664;23.594;2023-04-09T04:09:22;95658.38;;;8.70;73.22
23172;BME280;11754;42.664;23.594;2023-04-09T04:11:48;95662.13;;;8.68;73.64
23172;BME280;11754;42.664;23.594;2023-04-09T04:14:13;95659.66;;;8.66;73.81
23172;BME280;11754;42.664;23.594;2023-04-09T04:16:40;95663.25;;;8.65;73.52
23172;BME280;11754;42.664;23.594;2023-04-09T04:19:05;95661.84;;;8.71;73.36
23172;BME280;11754;42.664;23.594;2023-04-09T04:21:30;95648.41;;;8.74;72.97
23172;BME280;11754;42.664;23.594;2023-04-09T04:23:56;95655.47;;;8.73;73.39
23172;BME280;11754;42.664;23.594;2023-04-09T04:26:21;95651.25;;;8.80;73.14
23172;BME280;11754;42.664;23.594;2023-04-09T04:28:47;95651.97;;;8.90;72.79
23172;BME280;11754;42.664;23.594;2023-04-09T04:31:12;95657.16;;;9.00;72.43
23172;BME280;11754;42.664;23.594;2023-04-09T04:33:39;95657.69;;;9.04;72.41
23172;BME280;11754;42.664;23.594;2023-04-09T04:36:09;95654.59;;;9.08;71.70
23172;BME280;11754;42.664;23.594;2023-04-09T04:38:36;95658.03;;;9.27;71.12
23172;BME280;11754;42.664;23.594;2023-04-09T04:41:02;95656.28;;;9.35;70.97
23172;BME280;11754;42.664;23.594;2023-04-09T04:43:27;95672.28;;;9.42;70.41
23172;BME280;11754;42.664;23.594;2023-04-09T04:45:53;95669.34;;;9.45;70.69
23172;BME280;11754;42.664;23.594;2023-04-09T04:48:18;95664.44;;;9.50;69.94
23172;BME280;11754;42.664;23.594;2023-04-09T04:50:44;95666.91;;;9.52;70.03
23172;BME280;11754;42.664;23.594;2023-04-09T04:53:10;95674.38;;;9.56;70.17
23172;BME280;11754;42.664;23.594;2023-04-09T04:55:36;95671.78;;;9.65;69.75
23172;BME280;11754;42.664;23.594;2023-04-09T04:58:04;95670.50;;;9.77;69.55
23172;BME280;11754;42.664;23.594;2023-04-09T05:00:29;95670.38;;;9.78;69.61
23172;BME280;11754;42.664;23.594;2023-04-09T05:02:55;95677.03;;;9.99;68.68
23172;BME280;11754;42.664;23.594;2023-04-09T05:05:20;95670.81;;;10.00;68.42
23172;BME280;11754;42.664;23.594;2023-04-09T05:07:46;95681.78;;;10.21;67.34
23172;BME280;11754;42.664;23.594;2023-04-09T05:10:11;95678.47;;;10.19;66.68
23172;BME280;11754;42.664;23.594;2023-04-09T05:12:36;95678.25;;;10.13;65.58
23172;BME280;11754;42.664;23.594;2023-04-09T05:15:02;95679.88;;;10.05;65.80
23172;BME280;11754;42.664;23.594;2023-04-09T05:17:27;95674.41;;;9.99;66.83
23172;BME280;11754;42.664;23.594;2023-04-09T05:19:54;95674.09;;;10.02;66.14
23172;BME280;11754;42.664;23.594;2023-04-09T05:22:20;95675.41;;;9.98;66.50
23172;BME280;11754;42.664;23.594;2023-04-09T05:24:45;95681.03;;;10.03;66.01
23172;BME280;11754;42.664;23.594;2023-04-09T05:27:11;95680.94;;;9.86;66.59
23172;BME280;11754;42.664;23.594;2023-04-09T05:29:36;95668.88;;;9.76;67.50
23172;BME280;11754;42.664;23.594;2023-04-09T05:32:01;95684.25;;;9.89;66.93
23172;BME280;11754;42.664;23.594;2023-04-09T05:34:27;95673.03;;;9.86;66.88
23172;BME280;11754;42.664;23.594;2023-04-09T05:36:53;95679.91;;;9.79;67.35
23172;BME280;11754;42.664;23.594;2023-04-09T05:39:18;95670.44;;;9.60;66.69
23172;BME280;11754;42.664;23.594;2023-04-09T05:41:44;95673.22;;;9.59;66.15
23172;BME280;11754;42.664;23.594;2023-04-09T05:44:11;95678.16;;;9.62;66.42
23172;BME280;11754;42.664;23.594;2023-04-09T05:46:36;95679.50;;;9.66;66.26
23172;BME280;11754;42.664;23.594;2023-04-09T05:49:01;95678.47;;;9.59;66.16
23172;BME280;11754;42.664;23.594;2023-04-09T05:51:27;95679.88;;;9.71;66.08
23172;BME280;11754;42.664;23.594;2023-04-09T05:53:52;95676.63;;;9.77;66.09
23172;BME280;11754;42.664;23.594;2023-04-09T05:56:18;95674.13;;;9.76;66.08
23172;BME280;11754;42.664;23.594;2023-04-09T05:58:43;95680.63;;;9.90;64.96
23172;BME280;11754;42.664;23.594;2023-04-09T06:01:09;95680.97;;;9.95;65.04
23172;BME280;11754;42.664;23.594;2023-04-09T06:03:34;95688.88;;;9.95;64.97
23172;BME280;11754;42.664;23.594;2023-04-09T06:06:00;95686.91;;;9.89;64.23
23172;BME280;11754;42.664;23.594;2023-04-09T06:08:25;95692.50;;;9.94;64.88
23172;BME280;11754;42.664;23.594;2023-04-09T06:10:51;95682.47;;;9.97;63.84
23172;BME280;11754;42.664;23.594;2023-04-09T06:13:16;95686.94;;;9.97;63.59
23172;BME280;11754;42.664;23.594;2023-04-09T06:15:41;95699.94;;;9.98;63.50
23172;BME280;11754;42.664;23.594;2023-04-09T06:18:07;95695.19;;;10.02;63.01
23172;BME280;11754;42.664;23.594;2023-04-09T06:20:32;95691.00;;;10.17;62.76
23172;BME280;11754;42.664;23.594;2023-04-09T06:22:57;95684.53;;;10.11;62.96
23172;BME280;11754;42.664;23.594;2023-04-09T06:25:23;95690.63;;;10.12;62.88
23172;BME280;11754;42.664;23.594;2023-04-09T06:27:48;95688.00;;;10.20;62.87
23172;BME280;11754;42.664;23.594;2023-04-09T06:30:13;95700.84;;;10.15;63.13
23172;BME280;11754;42.664;23.594;2023-04-09T06:32:39;95695.75;;;10.14;62.74
23172;BME280;11754;42.664;23.594;2023-04-09T06:35:05;95693.84;;;9.98;62.84
23172;BME280;11754;42.664;23.594;2023-04-09T06:37:32;95704.06;;;10.01;63.19
23172;BME280;11754;42.664;23.594;2023-04-09T06:39:58;95705.22;;;9.98;63.51
23172;BME280;11754;42.664;23.594;2023-04-09T06:42:23;95707.41;;;10.03;63.04
23172;BME280;11754;42.664;23.594;2023-04-09T06:44:49;95712.56;;;9.86;63.77
23172;BME280;11754;42.664;23.594;2023-04-09T06:47:14;95713.91;;;9.91;63.76
23172;BME280;11754;42.664;23.594;2023-04-09T06:49:40;95724.34;;;10.00;63.67
23172;BME280;11754;42.664;23.594;2023-04-09T06:52:05;95711.22;;;9.82;62.65
23172;BME280;11754;42.664;23.594;2023-04-09T06:54:31;95710.72;;;9.79;63.55
23172;BME280;11754;42.664;23.594;2023-04-09T06:56:57;95709.28;;;9.84;63.21
23172;BME280;11754;42.664;23.594;2023-04-09T06:59:22;95710.41;;;9.82;62.56
23172;BME280;11754;42.664;23.594;2023-04-09T07:01:47;95713.59;;;9.94;63.04
23172;BME280;11754;42.664;23.594;2023-04-09T07:04:13;95714.28;;;9.96;63.70
23172;BME280;11754;42.664;23.594;2023-04-09T07:06:38;95721.44;;;10.11;62.60
23172;BME280;11754;42.664;23.594;2023-04-09T07:09:04;95709.59;;;9.81;61.97
23172;BME280;11754;42.664;23.594;2023-04-09T07:11:30;95719.09;;;9.74;62.58
23172;BME280;11754;42.664;23.594;2023-04-09T07:13:57;95716.72;;;9.63;63.62
23172;BME280;11754;42.664;23.594;2023-04-09T07:16:22;95725.56;;;9.62;63.78
23172;BME280;11754;42.664;23.594;2023-04-09T07:18:47;95715.84;;;9.62;63.97
23172;BME280;11754;42.664;23.594;2023-04-09T07:21:13;95710.81;;;9.69;63.55
23172;BME280;11754;42.664;23.594;2023-04-09T07:23:38;95718.44;;;9.80;63.40
23172;BME280;11754;42.664;23.594;2023-04-09T07:26:04;95718.13;;;9.83;62.47
23172;BME280;11754;42.664;23.594;2023-04-09T07:28:30;95717.63;;;9.80;63.14
23172;BME280;11754;42.664;23.594;2023-04-09T07:30:56;95729.06;;;9.89;62.72
23172;BME280;11754;42.664;23.594;2023-04-09T07:33:21;95733.41;;;10.06;63.17
23172;BME280;11754;42.664;23.594;2023-04-09T07:35:47;95726.88;;;10.10;61.73
23172;BME280;11754;42.664;23.594;2023-04-09T07:38:12;95737.75;;;10.15;61.01
23172;BME280;11754;42.664;23.594;2023-04-09T07:40:37;95726.38;;;10.15;61.64
23172;BME280;11754;42.664;23.594;2023-04-09T07:43:03;95729.28;;;10.29;61.47
23172;BME280;11754;42.664;23.594;2023-04-09T07:45:30;95728.22;;;10.22;60.98
23172;BME280;11754;42.664;23.594;2023-04-09T07:47:55;95724.09;;;10.46;61.28
23172;BME280;11754;42.664;23.594;2023-04-09T07:50:20;95720.03;;;10.68;60.33
23172;BME280;11754;42.664;23.594;2023-04-09T07:52:46;95717.94;;;10.88;59.83
23172;BME280;11754;42.664;23.594;2023-04-09T07:55:11;95730.13;;;10.89;59.21
23172;BME280;11754;42.664;23.594;2023-04-09T07:57:37;95735.88;;;10.76;60.07
23172;BME280;11754;42.664;23.594;2023-04-09T08:00:03;95724.53;;;10.83;58.97
23172;BME280;11754;42.664;23.594;2023-04-09T08:02:29;95731.16;;;11.04;58.68
23172;BME280;11754;42.664;23.594;2023-04-09T08:04:55;95722.56;;;11.02;58.61
23172;BME280;11754;42.664;23.594;2023-04-09T08:07:20;95725.69;;;10.89;58.61
23172;BME280;11754;42.664;23.594;2023-04-09T08:09:45;95728.16;;;10.91;59.46
23172;BME280;11754;42.664;23.594;2023-04-09T08:12:11;95735.44;;;11.05;58.97
23172;BME280;11754;42.664;23.594;2023-04-09T08:14:36;95712.72;;;11.37;57.59
23172;BME280;11754;42.664;23.594;2023-04-09T08:17:02;95715.13;;;11.79;57.02
23172;BME280;11754;42.664;23.594;2023-04-09T08:19:27;95711.41;;;12.68;55.11
23172;BME280;11754;42.664;23.594;2023-04-09T08:21:52;95711.16;;;13.55;52.23
23172;BME280;11754;42.664;23.594;2023-04-09T08:24:18;95714.53;;;13.87;49.63
23172;BME280;11754;42.664;23.594;2023-04-09T08:26:43;95715.19;;;14.18;49.04
23172;BME280;11754;42.664;23.594;2023-04-09T08:29:10;95718.56;;;14.42;48.64
23172;BME280;11754;42.664;23.594;2023-04-09T08:31:36;95722.22;;;14.71;45.55
23172;BME280;11754;42.664;23.594;2023-04-09T08:34:02;95714.63;;;14.82;45.20
23172;BME280;11754;42.664;23.594;2023-04-09T08:36:27;95721.31;;;14.63;46.25
23172;BME280;11754;42.664;23.594;2023-04-09T08:38:53;95716.66;;;14.36;46.40
23172;BME280;11754;42.664;23.594;2023-04-09T08:41:22;95715.19;;;14.18;47.95
23172;BME280;11754;42.664;23.594;2023-04-09T08:43:52;95710.72;;;14.04;46.96
23172;BME280;11754;42.664;23.594;2023-04-09T08:46:18;95708.78;;;14.28;46.29
23172;BME280;11754;42.664;23.594;2023-04-09T08:48:45;95706.31;;;14.41;45.66
23172;BME280;11754;42.664;23.594;2023-04-09T08:51:16;95697.44;;;14.63;46.15
23172;BME280;11754;42.664;23.594;2023-04-09T08:53:44;95697.38;;;15.14;45.40
23172;BME280;11754;42.664;23.594;2023-04-09T08:56:10;95701.94;;;15.42;45.56
23172;BME280;11754;42.664;23.594;2023-04-09T08:58:40;95688.94;;;15.69;44.82
23172;BME280;11754;42.664;23.594;2023-04-09T09:01:38;95687.06;;;15.97;44.29
23172;BME280;11754;42.664;23.594;2023-04-09T09:04:07;95679.97;;;16.80;41.00
23172;BME280;11754;42.664;23.594;2023-04-09T09:06:37;95678.25;;;17.27;40.63
23172;BME280;11754;42.664;23.594;2023-04-09T09:09:08;95679.47;;;17.51;40.03
23172;BME280;11754;42.664;23.594;2023-04-09T09:11:35;95672.09;;;17.53;38.51
23172;BME280;11754;42.664;23.594;2023-04-09T09:16:28;95660.81;;;18.05;37.11
23172;BME280;11754;42.664;23.594;2023-04-09T09:18:53;95656.56;;;19.00;36.58
23172;BME280;11754;42.664;23.594;2023-04-09T09:21:22;95650.09;;;20.39;34.17
23172;BME280;11754;42.664;23.594;2023-04-09T09:23:47;95650.34;;;20.56;31.79
23172;BME280;11754;42.664;23.594;2023-04-09T09:26:16;95646.81;;;20.37;33.44
23172;BME280;11754;42.664;23.594;2023-04-09T09:28:44;95629.84;;;20.80;31.31
23172;BME280;11754;42.664;23.594;2023-04-09T09:31:11;95635.25;;;20.92;31.54
23172;BME280;11754;42.664;23.594;2023-04-09T09:33:38;95634.94;;;22.07;30.80
23172;BME280;11754;42.664;23.594;2023-04-09T09:36:04;95639.69;;;23.21;27.78
23172;BME280;11754;42.664;23.594;2023-04-09T09:38:30;95629.75;;;22.93;28.69
23172;BME280;11754;42.664;23.594;2023-04-09T09:40:56;95621.28;;;22.33;28.82
23172;BME280;11754;42.664;23.594;2023-04-09T09:43:23;95621.03;;;21.75;29.31
23172;BME280;11754;42.664;23.594;2023-04-09T09:45:48;95611.25;;;22.97;28.75
23172;BME280;11754;42.664;23.594;2023-04-09T09:48:14;95612.06;;;22.57;28.49
23172;BME280;11754;42.664;23.594;2023-04-09T09:50:41;95617.88;;;21.90;29.05
23172;BME280;11754;42.664;23.594;2023-04-09T09:53:08;95619.25;;;21.16;29.21
23172;BME280;11754;42.664;23.594;2023-04-09T09:55:38;95609.34;;;21.58;28.36
23172;BME280;11754;42.664;23.594;2023-04-09T09:58:21;95619.09;;;19.70;31.13
23172;BME280;11754;42.664;23.594;2023-04-09T10:00:49;95616.03;;;18.71;33.31
23172;BME280;11754;42.664;23.594;2023-04-09T10:03:22;95611.91;;;18.76;33.29
23172;BME280;11754;42.664;23.594;2023-04-09T10:05:49;95611.84;;;19.96;32.39
23172;BME280;11754;42.664;23.594;2023-04-09T10:08:15;95606.63;;;20.37;30.90
23172;BME280;11754;42.664;23.594;2023-04-09T10:10:41;95596.31;;;20.90;30.26
23172;BME280;11754;42.664;23.594;2023-04-09T10:13:13;95597.59;;;20.99;30.04
23172;BME280;11754;42.664;23.594;2023-04-09T10:15:40;95598.59;;;20.37;30.17
23172;BME280;11754;42.664;23.594;2023-04-09T10:18:08;95587.16;;;20.30;31.05
23172;BME280;11754;42.664;23.594;2023-04-09T10:20:55;95598.97;;;20.04;31.20
23172;BME280;11754;42.664;23.594;2023-04-09T10:23:52;95589.69;;;20.25;29.49
23172;BME280;11754;42.664;23.594;2023-04-09T10:26:18;95603.00;;;19.95;29.77
23172;BME280;11754;42.664;23.594;2023-04-09T10:28:44;95594.25;;;19.31;30.56
23172;BME280;11754;42.664;23.594;2023-04-09T10:31:10;95599.00;;;19.04;31.33
23172;BME280;11754;42.664;23.594;2023-04-09T10:33:37;95585.84;;;19.03;30.60
23172;BME280;11754;42.664;23.594;2023-04-09T10:36:10;95594.56;;;18.85;30.80
23172;BME280;11754;42.664;23.594;2023-04-09T10:41:27;95586.09;;;18.94;31.01
23172;BME280;11754;42.664;23.594;2023-04-09T10:43:53;95583.88;;;20.10;30.00
23172;BME280;11754;42.664;23.594;2023-04-09T10:46:29;95576.84;;;20.94;28.44
23172;BME280;11754;42.664;23.594;2023-04-09T10:49:17;95565.84;;;21.14;28.63
23172;BME280;11754;42.664;23.594;2023-04-09T10:59:36;95582.53;;;19.32;28.83
23172;BME280;11754;42.664;23.594;2023-04-09T11:02:06;95562.44;;;18.98;29.14
23172;BME280;11754;42.664;23.594;2023-04-09T11:07:08;95567.72;;;18.73;29.32
23172;BME280;11754;42.664;23.594;2023-04-09T11:09:34;95556.91;;;18.55;28.86
23172;BME280;11754;42.664;23.594;2023-04-09T11:12:00;95555.03;;;18.17;29.85
23172;BME280;11754;42.664;23.594;2023-04-09T11:14:26;95563.28;;;18.09;30.95
23172;BME280;11754;42.664;23.594;2023-04-09T11:16:52;95555.69;;;19.20;29.62
23172;BME280;11754;42.664;23.594;2023-04-09T11:19:18;95563.81;;;19.32;29.33
23172;BME280;11754;42.664;23.594;2023-04-09T11:21:44;95554.19;;;19.50;29.42
23172;BME280;11754;42.664;23.594;2023-04-09T11:24:11;95551.28;;;19.08;30.97
23172;BME280;11754;42.664;23.594;2023-04-09T11:26:37;95549.66;;;19.00;29.24
23172;BME280;11754;42.664;23.594;2023-04-09T11:29:06;95544.50;;;18.67;30.75
23172;BME280;11754;42.664;23.594;2023-04-09T11:31:35;95554.38;;;18.73;31.36
23172;BME280;11754;42.664;23.594;2023-04-09T11:34:01;95547.75;;;18.37;30.78
23172;BME280;11754;42.664;23.594;2023-04-09T11:36:27;95543.38;;;18.05;31.04
23172;BME280;11754;42.664;23.594;2023-04-09T11:38:53;95544.88;;;17.87;31.04
23172;BME280;11754;42.664;23.594;2023-04-09T11:43:57;95542.44;;;17.79;31.66
23172;BME280;11754;42.664;23.594;2023-04-09T11:46:23;95534.59;;;17.84;31.39
23172;BME280;11754;42.664;23.594;2023-04-09T11:48:51;95529.72;;;17.68;31.41
23172;BME280;11754;42.664;23.594;2023-04-09T11:51:17;95534.63;;;17.71;32.46
23172;BME280;11754;42.664;23.594;2023-04-09T11:53:43;95533.38;;;17.67;31.65
23172;BME280;11754;42.664;23.594;2023-04-09T11:56:09;95532.53;;;17.99;31.32
23172;BME280;11754;42.664;23.594;2023-04-09T11:58:34;95510.44;;;18.62;30.03
23172;BME280;11754;42.664;23.594;2023-04-09T12:01:00;95509.06;;;19.78;27.61
23172;BME280;11754;42.664;23.594;2023-04-09T12:03:30;95518.19;;;19.02;28.77
23172;BME280;11754;42.664;23.594;2023-04-09T12:05:59;95512.81;;;18.77;30.00
23172;BME280;11754;42.664;23.594;2023-04-09T12:08:26;95509.53;;;18.75;29.06
23172;BME280;11754;42.664;23.594;2023-04-09T12:10:51;95507.88;;;18.42;30.13
23172;BME280;11754;42.664;23.594;2023-04-09T12:13:17;95510.00;;;18.27;29.73
23172;BME280;11754;42.664;23.594;2023-04-09T12:15:42;95528.13;;;18.57;30.45
23172;BME280;11754;42.664;23.594;2023-04-09T12:18:10;95515.81;;;18.56;29.32
23172;BME280;11754;42.664;23.594;2023-04-09T12:20:38;95517.44;;;18.25;30.09
23172;BME280;11754;42.664;23.594;2023-04-09T12:23:04;95515.66;;;18.06;30.03
23172;BME280;11754;42.664;23.594;2023-04-09T12:25:34;95506.75;;;17.53;31.65
23172;BME280;11754;42.664;23.594;2023-04-09T12:28:00;95506.00;;;17.13;31.01
23172;BME280;11754;42.664;23.594;2023-04-09T12:30:27;95507.25;;;16.84;31.67
23172;BME280;11754;42.664;23.594;2023-04-09T12:32:54;95513.72;;;16.62;32.79
23172;BME280;11754;42.664;23.594;2023-04-09T12:35:20;95499.38;;;16.49;31.90
23172;BME280;11754;42.664;23.594;2023-04-09T12:37:46;95506.28;;;16.37;33.46
23172;BME280;11754;42.664;23.594;2023-04-09T12:40:12;95512.88;;;16.34;32.60
23172;BME280;11754;42.664;23.594;2023-04-09T12:42:41;95512.44;;;16.24;33.19
23172;BME280;11754;42.664;23.594;2023-04-09T12:45:12;95503.03;;;16.35;32.73
23172;BME280;11754;42.664;23.594;2023-04-09T12:47:38;95505.94;;;16.53;33.14
23172;BME280;11754;42.664;23.594;2023-04-09T12:50:05;95505.59;;;16.96;32.43
23172;BME280;11754;42.664;23.594;2023-04-09T12:52:31;95501.50;;;17.00;31.38
23172;BME280;11754;42.664;23.594;2023-04-09T12:54:56;95488.78;;;17.02;32.12
23172;BME280;11754;42.664;23.594;2023-04-09T12:57:22;95501.91;;;17.24;32.04
23172;BME280;11754;42.664;23.594;2023-04-09T12:59:47;95499.00;;;17.39;31.58
23172;BME280;11754;42.664;23.594;2023-04-09T13:02:13;95498.53;;;17.62;32.07
23172;BME280;11754;42.664;23.594;2023-04-09T13:04:38;95490.16;;;17.45;31.61
23172;BME280;11754;42.664;23.594;2023-04-09T13:07:03;95489.16;;;17.33;31.69
23172;BME280;11754;42.664;23.594;2023-04-09T13:09:29;95495.72;;;17.23;31.51
23172;BME280;11754;42.664;23.594;2023-04-09T13:11:54;95492.41;;;17.48;32.38
23172;BME280;11754;42.664;23.594;2023-04-09T13:14:20;95484.66;;;17.33;32.51
23172;BME280;11754;42.664;23.594;2023-04-09T13:16:45;95477.28;;;17.09;32.83